Time;durP1;ratioP1;P1;durP2;ratioP2;P2;SDS_P1;SDS_P2;PMS_P1;PMS_P2;Temp;Humidity;BMP_temperature;BMP_pressure;BME280_temperature;BME280_humidity;BME280_pressure;Samples;Min_cycle;Max_cycle;Signal;HPM_P1;HPM_P2
2022/10/02 00:00:22;;;;;;;10.55;7.12;;;;;;;17.34;71.40;99575.52;1701329;83;21134;-73
2022/10/02 00:03:00;;;;;;;10.47;7.03;;;;;;;17.36;71.39;99582.73;1704776;82;21072;-73
2022/10/02 00:05:41;;;;;;;8.83;6.63;;;;;;;17.37;71.58;99563.28;1687228;83;21179;-73
2022/10/02 00:08:24;;;;;;;8.43;6.27;;;;;;;17.37;71.58;99563.28;1698366;83;21385;-74
2022/10/02 00:11:18;;;;;;;9.70;6.63;;;;;;;17.35;71.33;99556.88;1746293;80;21047;-73
2022/10/02 00:13:55;;;;;;;10.23;6.33;;;;;;;17.29;71.42;99548.73;1754819;80;21131;-74
2022/10/02 00:16:41;;;;;;;10.50;6.37;;;;;;;17.25;71.45;99551.29;1747179;81;21106;-74
2022/10/02 00:19:10;;;;;;;7.47;5.83;;;;;;;17.25;71.48;99541.06;1731049;82;21235;-73
2022/10/02 00:22:20;;;;;;;9.00;6.20;;;;;;;17.24;71.50;99519.22;1747362;80;21035;-74
2022/10/02 00:25:23;;;;;;;8.70;6.00;;;;;;;17.24;71.50;99519.22;1751745;80;21088;-74
2022/10/02 00:28:05;;;;;;;8.15;6.50;;;;;;;17.21;71.34;99513.94;1693862;82;21074;-73
2022/10/02 00:30:37;;;;;;;8.13;5.70;;;;;;;17.16;71.33;99503.88;1745353;80;21098;-73
2022/10/02 00:33:21;;;;;;;12.33;6.07;;;;;;;17.09;71.36;99493.60;1717926;80;21339;-72
2022/10/02 00:36:15;;;;;;;10.77;6.17;;;;;;;17.03;71.44;99494.34;1761233;80;21746;-73
2022/10/02 00:39:06;;;;;;;8.17;6.47;;;;;;;16.99;71.53;99494.77;1742777;80;22251;-75
2022/10/02 00:41:47;;;;;;;7.20;5.60;;;;;;;16.98;71.62;99491.03;1731589;80;21714;-75
2022/10/02 00:44:44;;;;;;;8.73;6.00;;;;;;;16.96;71.67;99481.14;1748737;80;21748;-73
2022/10/02 00:47:35;;;;;;;7.87;5.70;;;;;;;16.90;71.77;99473.78;1750566;80;21258;-72
2022/10/02 00:50:38;;;;;;;8.60;5.92;;;;;;;16.80;71.84;99460.11;1749413;80;21702;-72
2022/10/02 00:53:41;;;;;;;7.30;5.08;;;;;;;16.74;72.04;99440.36;1748212;80;21024;-74
2022/10/02 00:56:22;;;;;;;7.23;5.00;;;;;;;16.69;72.20;99445.95;1751668;80;21547;-73
2022/10/02 00:59:22;;;;;;;9.10;5.87;;;;;;;16.65;72.29;99446.59;1751036;80;21676;-73
2022/10/02 01:01:58;;;;;;;7.70;5.70;;;;;;;16.67;72.38;99444.13;1773151;80;21738;-73
2022/10/02 01:04:34;;;;;;;7.33;5.43;;;;;;;16.66;72.37;99440.64;1750254;80;21737;-73
2022/10/02 01:07:05;;;;;;;11.93;6.10;;;;;;;16.62;72.43;99430.28;1743370;80;21718;-74
2022/10/02 01:09:32;;;;;;;5.33;4.30;;;;;;;16.61;72.60;99427.34;1750846;82;21685;-73
2022/10/02 01:12:00;;;;;;;8.00;5.20;;;;;;;16.60;72.70;99417.11;1747221;80;21048;-73
2022/10/02 01:14:39;;;;;;;8.43;5.17;;;;;;;16.61;72.75;99410.59;1744144;81;22211;-73
2022/10/02 01:17:09;;;;;;;9.60;5.10;;;;;;;16.62;72.74;99402.77;1747050;80;21016;-73
2022/10/02 01:19:39;;;;;;;7.20;5.20;;;;;;;16.62;72.68;99397.38;1739728;80;22220;-73
2022/10/02 01:22:36;;;;;;;7.00;5.00;;;;;;;16.62;72.67;99394.67;1747207;80;21828;-73
2022/10/02 01:25:04;;;;;;;9.87;5.50;;;;;;;16.60;72.62;99395.55;1761609;80;21672;-73
2022/10/02 01:27:32;;;;;;;6.03;4.70;;;;;;;16.58;72.63;99403.19;1768053;79;22239;-73
2022/10/02 01:30:10;;;;;;;7.03;4.73;;;;;;;16.57;72.64;99398.11;1683293;83;21748;-72
2022/10/02 01:32:48;;;;;;;6.63;4.60;;;;;;;16.55;72.65;99398.45;1683086;85;21725;-74
2022/10/02 01:35:15;;;;;;;9.17;5.07;;;;;;;16.53;72.67;99399.31;1682605;83;21639;-73
2022/10/02 01:37:43;;;;;;;7.30;4.67;;;;;;;16.53;72.66;99391.79;1711739;82;21670;-73
2022/10/02 01:40:23;;;;;;;7.23;4.33;;;;;;;16.50;72.69;99381.09;1686285;83;21796;-74
2022/10/02 01:42:50;;;;;;;7.00;4.30;;;;;;;16.49;72.76;99370.09;1682529;85;21804;-73
2022/10/02 01:45:17;;;;;;;7.70;4.23;;;;;;;16.45;72.85;99358.36;1710247;82;21757;-72
2022/10/02 01:47:55;;;;;;;6.93;5.07;;;;;;;16.40;72.93;99358.56;1692135;82;21826;-73
2022/10/02 01:50:30;;;;;;;5.57;4.27;;;;;;;16.40;72.95;99359.91;1748632;80;21663;-72
2022/10/02 01:53:29;;;;;;;7.20;4.03;;;;;;;16.43;72.90;99359.82;1749705;81;22223;-72
2022/10/02 01:56:07;;;;;;;6.27;4.30;;;;;;;16.44;72.84;99364.09;1752313;80;21832;-72
2022/10/02 01:58:55;;;;;;;6.73;4.00;;;;;;;16.44;72.85;99352.74;1749607;80;21693;-73
2022/10/02 02:01:28;;;;;;;5.57;4.20;;;;;;;16.44;72.81;99354.09;1736319;80;22239;-72
2022/10/02 02:04:04;;;;;;;6.07;4.33;;;;;;;16.43;72.71;99351.17;1748324;80;21674;-73
2022/10/02 02:06:42;;;;;;;6.40;4.30;;;;;;;16.41;72.68;99342.61;1745812;80;22083;-72
2022/10/02 02:09:37;;;;;;;5.83;4.20;;;;;;;16.39;72.67;99336.77;1748380;82;22270;-72
2022/10/02 02:12:18;;;;;;;5.50;3.90;;;;;;;15.88;73.80;99329.13;1746756;80;22182;-73
2022/10/02 02:14:54;;;;;;;6.40;4.07;;;;;;;15.57;74.94;99320.73;1767907;81;21648;-74
2022/10/02 02:17:31;;;;;;;5.87;3.53;;;;;;;15.44;75.51;99302.30;1757260;79;21753;-73
2022/10/02 02:20:05;;;;;;;6.47;4.13;;;;;;;15.38;75.86;99300.10;1747950;80;22333;-72
2022/10/02 02:22:40;;;;;;;5.97;4.20;;;;;;;15.33;76.22;99293.53;1750876;80;21704;-72
2022/10/02 02:25:21;;;;;;;6.87;3.27;;;;;;;15.30;76.45;99291.48;1749268;80;22910;-73
2022/10/02 02:27:53;;;;;;;5.57;3.87;;;;;;;15.28;76.75;99278.92;1744939;81;22341;-72
2022/10/02 02:30:19;;;;;;;7.30;3.98;;;;;;;15.25;77.19;99275.75;1755894;80;21717;-74
2022/10/02 02:32:55;;;;;;;7.67;3.90;;;;;;;15.22;77.45;99261.59;1720336;83;21103;-74
2022/10/02 02:35:39;;;;;;;5.93;3.60;;;;;;;15.19;77.73;99255.50;1729336;80;21757;-74
2022/10/02 02:38:13;;;;;;;6.10;3.93;;;;;;;15.86;76.10;99242.49;1720715;83;21731;-73
2022/10/02 02:40:42;;;;;;;4.57;3.50;;;;;;;16.01;75.39;99240.61;1781395;80;21662;-72
2022/10/02 02:43:16;;;;;;;4.67;3.20;;;;;;;16.04;75.18;99233.78;1751553;80;22256;-73
2022/10/02 02:45:51;;;;;;;4.97;3.70;;;;;;;16.03;75.05;99237.05;1748795;80;22271;-73
2022/10/02 02:48:32;;;;;;;7.37;3.93;;;;;;;16.06;74.94;99224.27;1711633;82;21709;-73
2022/10/02 02:51:03;;;;;;;6.07;3.83;;;;;;;16.09;74.83;99222.81;1687571;83;21785;-73
2022/10/02 02:53:40;;;;;;;6.25;3.50;;;;;;;16.11;74.71;99215.98;1702650;82;21717;-73
2022/10/02 02:56:09;;;;;;;5.00;3.60;;;;;;;16.14;74.57;99215.34;1683972;83;20997;-74
2022/10/02 02:58:44;;;;;;;8.37;3.47;;;;;;;16.17;74.46;99199.09;1684628;83;22396;-73
2022/10/02 03:01:10;;;;;;;7.10;3.97;;;;;;;16.20;74.37;99190.35;1703103;82;21845;-73
2022/10/02 03:03:37;;;;;;;4.90;3.57;;;;;;;16.24;74.20;99181.05;1700164;82;21710;-73
2022/10/02 03:06:20;;;;;;;8.57;4.57;;;;;;;16.24;74.10;99179.70;1664368;84;21703;-73
2022/10/02 03:08:50;;;;;;;6.93;3.90;;;;;;;16.23;74.04;99182.18;1698958;84;22267;-73
2022/10/02 03:11:55;;;;;;;5.67;3.93;;;;;;;16.25;73.96;99189.36;1706580;82;22500;-73
2022/10/02 03:15:01;;;;;;;7.27;3.83;;;;;;;16.28;73.91;99175.23;1751765;80;21746;-73
2022/10/02 03:17:51;;;;;;;7.53;3.80;;;;;;;16.27;73.80;99158.28;1733313;80;21734;-72
2022/10/02 03:21:00;;;;;;;5.17;3.37;;;;;;;16.27;73.81;99168.27;1749515;80;21817;-73
2022/10/02 03:23:45;;;;;;;5.13;3.70;;;;;;;16.24;73.81;99154.11;1725805;80;21710;-73
2022/10/02 03:26:22;;;;;;;5.73;4.27;;;;;;;16.24;73.90;99152.20;1749809;80;21803;-73
2022/10/02 03:28:52;;;;;;;5.50;4.13;;;;;;;16.28;73.93;99169.84;1744020;80;21769;-73
2022/10/02 03:31:19;;;;;;;6.50;4.30;;;;;;;16.31;73.96;99169.97;1745802;80;21721;-72
2022/10/02 03:33:47;;;;;;;6.73;4.53;;;;;;;16.34;73.95;99168.53;1748923;80;21835;-72
2022/10/02 03:36:16;;;;;;;6.10;4.13;;;;;;;16.35;74.03;99180.88;1749996;80;21709;-72
2022/10/02 03:38:43;;;;;;;4.97;4.00;;;;;;;16.39;74.05;99195.30;1749488;82;21688;-72
2022/10/02 03:41:10;;;;;;;7.17;4.33;;;;;;;16.45;74.04;99184.52;1728800;82;21668;-72
2022/10/02 03:43:40;;;;;;;6.30;4.20;;;;;;;16.52;74.01;99175.38;1754090;80;21723;-72
2022/10/02 03:46:07;;;;;;;7.23;3.73;;;;;;;16.56;73.87;99166.84;1760425;80;20992;-72
2022/10/02 03:48:35;;;;;;;6.57;3.97;;;;;;;16.55;73.69;99157.73;1757175;81;21523;-72
2022/10/02 03:51:02;;;;;;;9.50;4.57;;;;;;;16.58;73.67;99155.72;1746001;80;21330;-72
2022/10/02 03:53:33;;;;;;;4.80;3.87;;;;;;;16.62;73.60;99153.40;1762955;79;21803;-72
2022/10/02 03:56:07;;;;;;;6.40;4.03;;;;;;;16.68;73.42;99134.30;1757774;80;21759;-72
2022/10/02 03:58:35;;;;;;;6.90;4.03;;;;;;;16.62;73.18;99125.09;1756486;80;21047;-72
2022/10/02 04:01:13;;;;;;;12.27;4.83;;;;;;;16.46;73.18;99112.01;1763297;80;21687;-72
2022/10/02 04:03:51;;;;;;;7.33;4.50;;;;;;;16.46;73.18;99112.01;1762035;80;21081;-73
2022/10/02 04:06:35;;;;;;;6.17;4.30;;;;;;;16.48;73.22;99109.75;1748874;80;21835;-74
2022/10/02 04:09:13;;;;;;;7.23;4.50;;;;;;;16.49;73.33;99107.30;1739723;81;21753;-73
2022/10/02 04:11:47;;;;;;;9.87;4.70;;;;;;;16.49;73.33;99107.30;1750060;82;21063;-72
2022/10/02 04:14:31;;;;;;;8.57;4.80;;;;;;;16.48;73.13;99101.66;1750394;80;21718;-74
2022/10/02 04:17:42;;;;;;;7.23;4.70;;;;;;;16.43;73.23;99095.72;1762582;80;21774;-72
2022/10/02 04:20:12;;;;;;;6.40;4.70;;;;;;;16.37;73.41;99096.47;1720314;81;21725;-73
2022/10/02 04:22:58;;;;;;;6.08;4.42;;;;;;;16.36;73.60;99096.25;1726874;80;21740;-73
2022/10/02 04:25:29;;;;;;;9.57;4.43;;;;;;;16.38;73.73;99088.61;1747315;82;21089;-73
2022/10/02 04:28:14;;;;;;;6.67;4.30;;;;;;;16.40;73.81;99086.37;1749797;80;22146;-73
2022/10/02 04:30:41;;;;;;;9.63;5.07;;;;;;;16.59;73.86;99057.58;1736987;80;21691;-72
2022/10/02 04:33:18;;;;;;;8.17;4.27;;;;;;;16.65;73.90;99047.60;1748108;80;21029;-72
2022/10/02 04:36:21;;;;;;;7.27;4.93;;;;;;;16.65;73.90;99047.60;1763455;80;21031;-72
2022/10/02 04:39:15;;;;;;;6.43;4.53;;;;;;;16.74;73.76;99034.57;1751244;80;21685;-72
2022/10/02 04:41:54;;;;;;;8.57;4.70;;;;;;;16.75;73.69;99034.81;1750189;81;21126;-74
2022/10/02 04:44:35;;;;;;;5.67;4.30;;;;;;;16.81;73.47;99038.88;1753328;80;21737;-71
2022/10/02 04:47:43;;;;;;;7.55;4.62;;;;;;;16.76;73.25;99040.45;1750856;80;21079;-72
2022/10/02 04:50:37;;;;;;;8.60;5.20;;;;;;;16.75;73.19;99045.07;1765880;80;21087;-72
2022/10/02 04:53:25;;;;;;;9.23;5.17;;;;;;;16.72;73.18;99020.66;1750573;81;21612;-72
2022/10/02 04:55:57;;;;;;;6.70;4.90;;;;;;;16.84;73.14;99025.51;1748632;80;21029;-72
2022/10/02 04:59:00;;;;;;;8.00;5.00;;;;;;;16.84;73.14;99025.51;1718619;80;21314;-72
2022/10/02 05:01:59;;;;;;;6.12;4.75;;;;;;;16.89;73.10;99020.47;1747686;80;21683;-73
2022/10/02 05:04:57;;;;;;;7.07;5.27;;;;;;;16.85;73.00;99012.84;1759475;80;21417;-71
2022/10/02 05:08:01;;;;;;;7.67;4.70;;;;;;;16.81;73.01;99009.22;1730296;80;21071;-73
2022/10/02 05:10:55;;;;;;;5.97;4.20;;;;;;;16.78;73.05;99003.14;1748274;80;21091;-73
2022/10/02 05:13:59;;;;;;;9.37;5.37;;;;;;;16.75;73.12;98988.98;1719674;83;22266;-72
2022/10/02 05:16:59;;;;;;;7.67;5.07;;;;;;;16.74;73.22;98988.17;1737753;80;21027;-73
2022/10/02 05:19:48;;;;;;;8.27;5.63;;;;;;;16.74;73.22;98988.17;1738862;80;21150;-71
2022/10/02 05:22:35;;;;;;;6.50;5.23;;;;;;;16.81;73.43;98990.34;1720328;83;21138;-73
2022/10/02 05:25:10;;;;;;;9.10;5.13;;;;;;;16.93;73.56;98993.05;1747582;80;21087;-74
2022/10/02 05:27:49;;;;;;;6.37;5.10;;;;;;;17.05;73.48;98990.92;1763811;80;21666;-74
2022/10/02 05:30:17;;;;;;;6.90;5.13;;;;;;;17.16;73.31;98991.25;1747299;80;21475;-73
2022/10/02 05:33:09;;;;;;;9.97;5.03;;;;;;;17.25;73.15;98987.87;1750022;80;21110;-72
2022/10/02 05:36:08;;;;;;;5.80;5.07;;;;;;;17.30;72.88;98990.32;1750242;80;21067;-74
2022/10/02 05:39:06;;;;;;;6.83;5.27;;;;;;;17.24;72.54;98976.83;1748491;80;20997;-75
2022/10/02 05:42:20;;;;;;;8.00;5.23;;;;;;;17.25;72.54;98977.08;1750055;80;21116;-75
2022/10/02 05:45:03;;;;;;;8.70;5.53;;;;;;;17.29;72.42;98973.91;1688158;82;20972;-75
2022/10/02 05:47:40;;;;;;;8.57;4.93;;;;;;;17.33;72.28;98972.10;1712760;82;21539;-74
2022/10/02 05:50:18;;;;;;;10.03;4.93;;;;;;;17.37;72.23;98965.45;1702642;82;21248;-75
2022/10/02 05:53:36;;;;;;;7.80;5.00;;;;;;;17.41;72.14;98961.75;1754274;80;20992;-75
2022/10/02 05:56:14;;;;;;;8.13;5.80;;;;;;;17.46;72.06;98959.37;1761250;79;21511;-74
2022/10/02 05:59:02;;;;;;;7.23;5.57;;;;;;;17.45;71.89;98955.89;1753262;80;21659;-75
2022/10/02 06:01:43;;;;;;;11.17;5.50;;;;;;;17.45;71.81;98955.11;1743693;80;21587;-75
2022/10/02 06:04:19;;;;;;;6.93;5.17;;;;;;;17.47;71.82;98948.25;1727611;81;21072;-75
2022/10/02 06:06:56;;;;;;;6.90;5.40;;;;;;;17.56;71.78;98946.73;1717147;82;21080;-74
2022/10/02 06:09:32;;;;;;;8.50;5.40;;;;;;;17.65;71.63;98934.45;1698415;83;21192;-74
2022/10/02 06:12:30;;;;;;;6.57;5.37;;;;;;;17.71;71.54;98926.34;1702305;82;22362;-74
2022/10/02 06:15:21;;;;;;;8.60;5.50;;;;;;;17.72;71.34;98924.63;1707506;82;21743;-74
2022/10/02 06:17:59;;;;;;;;;;;;;;;17.74;71.27;98928.35;1719121;82;21087;-74
2022/10/02 06:20:47;;;;;;;6.97;5.33;;;;;;;17.79;71.22;98919.45;1719548;82;20155;-74
2022/10/02 06:23:39;;;;;;;8.30;5.40;;;;;;;17.81;71.10;98918.55;1686251;83;21127;-75
2022/10/02 06:26:32;;;;;;;9.23;5.50;;;;;;;17.80;70.98;98920.23;1685531;83;21135;-74
2022/10/02 06:29:06;;;;;;;8.47;5.30;;;;;;;17.84;71.08;98919.78;1685087;83;21502;-74
2022/10/02 06:32:00;;;;;;;8.27;5.10;;;;;;;17.89;71.02;98910.63;1687949;83;21036;-75
2022/10/02 06:34:34;;;;;;;8.67;5.50;;;;;;;17.89;70.80;98910.63;1686590;83;21084;-75
2022/10/02 06:37:29;;;;;;;7.83;5.83;;;;;;;17.87;70.73;98911.53;1746056;80;21327;-75
2022/10/02 06:40:12;;;;;;;8.57;5.53;;;;;;;17.80;70.59;98904.84;1748552;80;21083;-73
2022/10/02 06:42:56;;;;;;;9.27;5.73;;;;;;;17.70;70.52;98897.20;1742555;80;20976;-74
2022/10/02 06:45:47;;;;;;;8.87;5.70;;;;;;;17.60;70.62;98886.88;1746256;80;21094;-74
2022/10/02 06:48:24;;;;;;;10.23;5.80;;;;;;;17.56;70.72;98886.00;1748886;82;21504;-74
2022/10/02 06:50:58;;;;;;;9.67;6.03;;;;;;;17.48;70.75;98882.33;1743390;80;21106;-74
2022/10/02 06:54:15;;;;;;;10.57;5.77;;;;;;;17.43;70.89;98881.21;1734662;80;21098;-75
2022/10/02 06:56:58;;;;;;;7.77;4.80;;;;;;;17.39;71.07;98883.03;1746901;80;21178;-75
2022/10/02 06:59:45;;;;;;;7.13;5.77;;;;;;;17.34;71.32;98888.66;1747220;80;21064;-75
2022/10/02 07:03:00;;;;;;;7.80;5.70;;;;;;;17.29;71.55;98884.30;1708562;82;21087;-74
2022/10/02 07:06:03;;;;;;;10.03;5.57;;;;;;;17.30;71.75;98878.33;1730468;80;22405;-75
2022/10/02 07:08:50;;;;;;;10.13;6.13;;;;;;;17.32;71.82;98873.39;1745426;80;21076;-75
2022/10/02 07:11:44;;;;;;;11.63;5.60;;;;;;;17.27;71.86;98881.72;1726430;80;21033;-74
2022/10/02 07:15:03;;;;;;;10.13;6.97;;;;;;;17.27;72.09;98881.14;1749610;82;21010;-74
2022/10/02 07:18:06;;;;;;;8.80;6.83;;;;;;;17.30;72.26;98882.38;1747561;80;21067;-74
2022/10/02 07:21:25;;;;;;;12.27;6.73;;;;;;;17.39;72.40;98885.73;1736143;80;21152;-74
2022/10/02 07:24:17;;;;;;;9.93;8.03;;;;;;;17.45;72.37;98891.67;1735108;80;21516;-74
2022/10/02 07:26:57;;;;;;;12.87;8.80;;;;;;;17.49;72.36;98894.69;1746679;80;21000;-72
2022/10/02 07:30:05;;;;;;;14.43;9.00;;;;;;;17.50;72.27;98889.50;1748395;81;21021;-74
2022/10/02 07:32:49;;;;;;;9.97;8.30;;;;;;;17.49;72.23;98889.28;1746914;80;21590;-74
2022/10/02 07:35:47;;;;;;;9.20;8.03;;;;;;;17.43;72.26;98875.81;1744966;82;21771;-72
2022/10/02 07:38:47;;;;;;;11.10;8.80;;;;;;;17.43;72.33;98866.36;1722253;80;20948;-75
2022/10/02 07:41:53;;;;;;;12.53;9.17;;;;;;;17.42;72.25;98864.02;1747904;80;20984;-75
2022/10/02 07:44:50;;;;;;;11.83;9.80;;;;;;;17.37;72.35;98851.55;1743262;80;21078;-74
2022/10/02 07:47:34;;;;;;;13.23;10.07;;;;;;;17.36;72.38;98841.88;1746032;80;21058;-74
2022/10/02 07:50:41;;;;;;;15.93;12.30;;;;;;;17.25;72.47;98827.33;1727986;80;21276;-73
2022/10/02 07:53:42;;;;;;;18.03;12.73;;;;;;;17.18;72.65;98820.39;1736441;81;21087;-74
2022/10/02 07:56:18;;;;;;;14.83;11.35;;;;;;;17.11;72.89;98817.70;1756872;80;21552;-74
2022/10/02 07:58:55;;;;;;;17.73;13.60;;;;;;;17.05;73.25;98816.94;1748943;80;21022;-74
2022/10/02 08:01:28;;;;;;;17.83;13.20;;;;;;;17.04;73.54;98812.66;1744342;80;21555;-74
2022/10/02 08:03:58;;;;;;;19.03;12.83;;;;;;;17.05;73.71;98814.25;1744704;80;21206;-74
2022/10/02 08:06:26;;;;;;;13.00;11.20;;;;;;;17.08;73.79;98813.00;1746984;80;21071;-73
2022/10/02 08:09:03;;;;;;;15.07;12.13;;;;;;;17.14;73.92;98811.39;1741476;80;21190;-76
2022/10/02 08:11:42;;;;;;;16.43;13.57;;;;;;;17.16;73.92;98803.75;1730058;80;20984;-74
2022/10/02 08:14:34;;;;;;;17.97;14.83;;;;;;;17.18;73.91;98809.59;1752514;80;21150;-73
2022/10/02 08:17:05;;;;;;;;;;;;;;;17.24;74.12;98805.50;1719294;82;21529;-73
2022/10/02 08:19:38;;;;;;;15.70;12.65;;;;;;;17.36;74.35;98801.41;1733424;81;20254;-73
2022/10/02 08:22:10;;;;;;;16.37;13.53;;;;;;;17.48;74.48;98793.25;1707970;82;21115;-73
2022/10/02 08:24:49;;;;;;;16.43;13.93;;;;;;;17.67;74.55;98791.78;1706714;82;21015;-75
2022/10/02 08:27:19;;;;;;;17.17;14.37;;;;;;;17.87;74.33;98789.45;1710047;82;21570;-74
2022/10/02 08:29:56;;;;;;;16.90;14.23;;;;;;;18.14;73.68;98774.84;1713818;82;21097;-75
2022/10/02 08:32:29;;;;;;;15.03;13.20;;;;;;;18.32;73.30;98785.47;1713902;82;21067;-75
2022/10/02 08:34:56;;;;;;;14.03;11.97;;;;;;;18.58;73.24;98789.52;1713517;82;21042;-75
2022/10/02 08:37:48;;;;;;;15.27;13.13;;;;;;;18.78;72.45;98780.89;1713400;82;20987;-73
2022/10/02 08:40:39;;;;;;;15.18;11.97;;;;;;;18.97;71.91;98791.16;1660669;83;21034;-74
2022/10/02 08:43:48;;;;;;;13.13;11.73;;;;;;;19.10;71.03;98778.84;1716364;82;21309;-74
2022/10/02 08:47:06;;;;;;;11.83;10.53;;;;;;;19.22;70.16;98784.11;1709630;82;21606;-73
2022/10/02 08:49:51;;;;;;;10.57;9.37;;;;;;;19.27;69.49;98779.74;1716395;82;21049;-73
2022/10/02 08:52:50;;;;;;;9.40;8.33;;;;;;;19.27;68.86;98778.97;1748260;80;21156;-74
2022/10/02 08:55:49;;;;;;;8.63;6.63;;;;;;;19.23;68.67;98776.77;1742285;80;21592;-73
2022/10/02 08:58:58;;;;;;;8.30;6.53;;;;;;;19.10;68.08;98776.91;1747023;80;21162;-73
2022/10/02 09:01:46;;;;;;;7.07;6.37;;;;;;;18.93;67.87;98782.19;1747507;80;20984;-73
2022/10/02 09:04:27;;;;;;;7.03;5.77;;;;;;;18.81;68.33;98776.91;1742081;80;21090;-74
2022/10/02 09:07:14;;;;;;;6.73;5.63;;;;;;;18.83;68.65;98781.41;1746217;80;21064;-73
2022/10/02 09:10:10;;;;;;;7.10;4.70;;;;;;;18.89;68.71;98788.11;1743396;80;21083;-74
2022/10/02 09:13:09;;;;;;;5.27;4.30;;;;;;;18.79;68.40;98779.20;1724588;82;21019;-74
2022/10/02 09:16:06;;;;;;;5.60;4.57;;;;;;;18.72;68.41;98777.67;1723976;82;20997;-74
2022/10/02 09:18:57;;;;;;;5.93;3.87;;;;;;;18.65;68.90;98789.67;1749464;80;20993;-74
2022/10/02 09:21:54;;;;;;;5.03;3.80;;;;;;;18.59;69.06;98785.67;1749840;80;20996;-74
2022/10/02 09:24:36;;;;;;;4.50;3.47;;;;;;;18.53;69.20;98786.53;1748056;80;21096;-74
2022/10/02 09:27:29;;;;;;;4.20;3.40;;;;;;;18.49;69.26;98779.70;1744706;80;21259;-74
2022/10/02 09:30:40;;;;;;;5.67;3.70;;;;;;;18.45;69.33;98784.80;1747909;80;21025;-74
2022/10/02 09:34:03;;;;;;;4.00;2.80;;;;;;;18.41;69.58;98779.31;1744714;80;20957;-72
2022/10/02 09:36:57;;;;;;;3.43;2.47;;;;;;;18.39;69.63;98786.98;1742435;80;21012;-73
2022/10/02 09:40:14;;;;;;;3.60;2.40;;;;;;;18.40;69.62;98776.98;1748679;80;21512;-74
2022/10/02 09:43:05;;;;;;;2.93;1.90;;;;;;;18.41;69.39;98783.37;1735540;81;21103;-74
2022/10/02 09:45:56;;;;;;;3.90;1.70;;;;;;;18.48;68.98;98778.69;1728560;80;21556;-74
2022/10/02 09:48:41;;;;;;;3.03;2.00;;;;;;;18.59;68.75;98782.42;1732633;80;21548;-73
2022/10/02 09:51:40;;;;;;;2.57;1.90;;;;;;;18.67;68.53;98784.13;1751283;80;21050;-73
2022/10/02 09:54:28;;;;;;;2.07;1.63;;;;;;;18.66;67.70;98779.09;1746850;80;21029;-74
2022/10/02 09:57:16;;;;;;;3.37;1.40;;;;;;;18.56;67.98;98780.97;1749769;82;21954;-72
2022/10/02 10:00:13;;;;;;;2.37;1.60;;;;;;;18.48;68.22;98766.52;1748727;80;21064;-73
2022/10/02 10:03:11;;;;;;;2.00;1.50;;;;;;;18.42;68.44;98793.03;1748943;80;21062;-74
2022/10/02 10:06:04;;;;;;;1.70;1.30;;;;;;;18.42;68.03;98783.58;1769568;80;21531;-74
2022/10/02 10:08:55;;;;;;;3.00;1.57;;;;;;;18.49;68.11;98785.11;1773691;81;21045;-73
2022/10/02 10:12:07;;;;;;;1.43;1.23;;;;;;;18.59;67.65;98780.27;1751040;80;21512;-72
2022/10/02 10:14:52;;;;;;;1.70;1.23;;;;;;;18.73;67.27;98780.05;1749328;80;22160;-75
2022/10/02 10:17:54;;;;;;;2.07;1.30;;;;;;;19.00;66.78;98792.38;1749649;80;21076;-73
2022/10/02 10:20:35;;;;;;;1.30;1.20;;;;;;;19.22;65.61;98789.52;1756911;80;21012;-73
2022/10/02 10:23:17;;;;;;;3.03;1.20;;;;;;;19.31;64.27;98794.70;1754928;80;21113;-75
2022/10/02 10:26:26;;;;;;;2.47;1.17;;;;;;;19.25;63.40;98798.28;1729745;81;21643;-73
2022/10/02 10:29:13;;;;;;;2.07;1.30;;;;;;;19.18;63.62;98794.06;1690965;83;21078;-73
2022/10/02 10:32:05;;;;;;;2.03;1.10;;;;;;;19.09;64.05;98798.36;1656378;85;21086;-72
2022/10/02 10:34:56;;;;;;;2.37;1.50;;;;;;;19.01;64.13;98795.85;1688529;84;23090;-72
2022/10/02 10:40:35;;;;;;;2.97;1.57;;;;;;;18.81;64.54;98786.38;1689369;83;21209;-73
2022/10/02 10:43:43;;;;;;;2.30;1.47;;;;;;;18.68;64.89;98807.89;1691698;84;21031;-73
2022/10/02 10:46:57;;;;;;;0.93;0.80;;;;;;;18.56;65.17;98811.52;1691881;84;21039;-73
2022/10/02 10:50:04;;;;;;;3.13;0.80;;;;;;;18.36;64.55;98790.95;1688746;83;21079;-72
2022/10/02 10:53:03;;;;;;;4.60;1.80;;;;;;;17.90;64.84;98802.26;1713750;83;21058;-73
2022/10/02 10:55:48;;;;;;;3.37;1.73;;;;;;;17.45;65.96;98821.50;1713807;82;22299;-70
2022/10/02 10:58:59;;;;;;;1.90;1.00;;;;;;;17.09;66.73;98822.65;1678204;83;21094;-72
2022/10/02 11:02:01;;;;;;;3.00;1.30;;;;;;;16.84;67.69;98830.01;1679509;83;21581;-76
2022/10/02 11:04:54;;;;;;;2.07;1.00;;;;;;;16.71;68.49;98839.22;1563172;83;9999873;-77
2022/10/02 11:07:52;;;;;;;1.53;0.80;;;;;;;16.58;68.56;98834.42;1686079;83;21243;-77
2022/10/02 11:10:32;;;;;;;1.73;0.80;;;;;;;16.51;68.46;98835.53;1686651;82;21028;-78
2022/10/02 11:13:14;;;;;;;1.87;1.10;;;;;;;16.48;67.97;98840.25;1713031;83;21051;-80
2022/10/02 11:16:05;;;;;;;0.80;0.70;;;;;;;16.39;67.86;98839.61;1710385;82;21010;-79
2022/10/02 11:19:09;;;;;;;1.67;0.70;;;;;;;16.35;67.54;98835.98;1710564;82;21149;-79
2022/10/02 11:22:15;;;;;;;1.03;0.77;;;;;;;16.18;66.54;98823.53;1705683;82;22210;-81
2022/10/02 11:25:22;;;;;;;4.10;0.90;;;;;;;16.18;66.54;98823.53;1753880;80;21035;-78
2022/10/02 11:28:07;;;;;;;1.80;0.70;;;;;;;16.23;66.76;98827.93;1751995;80;21749;-78
2022/10/02 11:31:00;;;;;;;2.37;0.90;;;;;;;16.23;66.76;98827.93;1747541;80;21146;-77
2022/10/02 11:33:50;;;;;;;2.27;0.80;;;;;;;16.25;66.38;98852.04;1738528;80;21542;-78
2022/10/02 11:36:43;;;;;;;1.57;0.70;;;;;;;16.27;66.23;98833.64;1737164;82;21760;-76
2022/10/02 11:39:14;;;;;;;2.10;1.03;;;;;;;16.22;65.60;98831.16;1737207;80;21837;-76
2022/10/02 11:42:08;;;;;;;1.60;0.90;;;;;;;16.21;65.59;98849.02;1742944;82;22248;-77
2022/10/02 11:45:03;;;;;;;2.03;1.10;;;;;;;16.17;65.39;98826.79;1728297;82;22171;-77
2022/10/02 11:47:53;;;;;;;1.63;0.90;;;;;;;16.16;65.39;98822.53;1743955;81;20934;-78
2022/10/02 11:50:34;;;;;;;2.60;1.00;;;;;;;16.10;65.00;98825.22;1760288;80;21707;-78
2022/10/02 11:53:30;;;;;;;1.70;0.90;;;;;;;16.12;65.12;98827.56;1741572;82;22226;-81
2022/10/02 11:56:21;;;;;;;2.60;1.30;;;;;;;16.12;65.12;98827.56;1505492;80;10000478;-78
2022/10/02 11:59:21;;;;;;;2.80;0.90;;;;;;;16.10;65.14;98831.17;1748021;81;21139;-79
2022/10/02 12:02:12;;;;;;;1.60;0.93;;;;;;;16.03;64.19;98826.91;1731938;82;21775;-78
2022/10/02 12:05:03;;;;;;;1.03;0.77;;;;;;;15.92;64.14;98914.04;1745404;81;22359;-78
2022/10/02 12:08:01;;;;;;;6.20;1.17;;;;;;;15.81;64.30;98830.22;1732293;80;21748;-77
2022/10/02 12:11:02;;;;;;;1.30;0.70;;;;;;;15.71;64.48;98826.61;1720810;81;21792;-78
2022/10/02 12:14:05;;;;;;;2.42;0.85;;;;;;;15.61;64.46;98861.44;1742347;82;21738;-77
2022/10/02 12:16:40;;;;;;;2.20;0.90;;;;;;;15.54;64.74;98857.16;1729620;82;21095;-77
2022/10/02 12:19:27;;;;;;;0.90;0.63;;;;;;;15.46;64.25;98855.31;1730541;81;21770;-80
2022/10/02 12:28:18;;;;;;;1.37;0.80;;;;;;;15.34;64.50;98851.25;1731898;82;22399;-78
2022/10/02 12:31:10;;;;;;;2.03;1.10;;;;;;;15.29;64.74;98865.67;1734746;81;21602;-78
2022/10/02 12:33:58;;;;;;;1.30;0.60;;;;;;;15.27;64.43;98872.48;1729190;80;21749;-74
2022/10/02 12:36:42;;;;;;;1.20;0.90;;;;;;;15.25;64.05;98864.20;1701465;82;21634;-74
2022/10/02 12:39:26;;;;;;;1.93;0.70;;;;;;;15.17;63.41;98860.25;1718725;83;21793;-74
2022/10/02 12:42:04;;;;;;;3.57;0.70;;;;;;;15.17;63.41;98860.25;1728891;81;21581;-73
2022/10/02 12:45:15;;;;;;;2.53;0.70;;;;;;;15.07;62.57;98862.78;1749746;80;21798;-74
2022/10/02 12:48:03;;;;;;;2.53;1.00;;;;;;;15.17;62.22;98862.38;1739944;80;21763;-72
2022/10/02 12:51:15;;;;;;;2.67;1.00;;;;;;;15.17;62.22;98862.38;1761828;80;21806;-73
2022/10/02 12:54:21;;;;;;;2.67;0.63;;;;;;;15.14;61.06;98850.16;1741938;80;21764;-72
2022/10/02 13:00:17;;;;;;;2.47;0.60;;;;;;;15.18;60.39;98845.13;1718356;83;21664;-74
2022/10/02 13:03:24;;;;;;;1.80;0.77;;;;;;;15.35;60.53;98846.88;1739129;82;21803;-73
2022/10/02 13:06:36;;;;;;;2.43;0.97;;;;;;;15.40;60.62;98836.45;1735481;82;22276;-73
2022/10/02 13:09:34;;;;;;;0.73;0.53;;;;;;;15.36;60.10;98883.41;1742023;82;21977;-74
2022/10/02 13:12:54;;;;;;;2.23;0.70;;;;;;;15.22;59.91;98847.38;1733692;80;21540;-72
2022/10/02 13:15:37;;;;;;;0.80;0.60;;;;;;;15.22;59.91;98880.99;1728769;82;21636;-73